EGGD/BRS METAR and TAF weather

Enter ICAO airport designator
Station Type Date Time Source
EGGD METAR 2020/07/06 18:50 UTC NOAA

EGGD 061850Z AUTO 27009KT 9999 FEW048 16/09 Q1023


Station Type Date Time Source
EGGD Decoded METAR 2020/07/06 18:50 UTC NOAA

Bristol / Lulsgate , United Kingdom (EGGD) 51-23N 002-43W
Jul 06, 2020 - 02:50 PM EDT / 2020.07.06 1850 UTC
Wind: from the W (270 degrees) at 10 MPH (9 KT):0
Visibility: greater than 7 mile(s):0
Sky conditions: mostly clear
Temperature: 60 F (16 C)
Dew Point: 48 F (9 C)
Relative Humidity: 63%
Pressure (altimeter): 30.21 in. Hg (1023 hPa)
ob: EGGD 061850Z AUTO 27009KT 9999 FEW048 16/09 Q1023
cycle: 19

Station Type Date Time Source
EGGD TAF 2020/07/06 18:09 UTC NOAA

TAF EGGD 061652Z 0618/0718 27012KT 9999 SCT025 PROB30
TEMPO 0717/0718 8000 -RA BKN007

Example: see airport list